Aviation Digital Data Service (ADDS)

Output produced by METARs form (1819 UTC 18 April 2019)
found at http://www.aviationweather.gov/metar/data/
 
Forecast for: WBKK (KOTA KINABALU IN, MY)
Text: TAF WBKK 181700Z 1818/1918 11005KT 9999 FEW014
Forecast period: 1800 UTC 18 April 2019 to 0100 UTC 19 April 2019
Forecast type: FROM: standard forecast or significant change
Winds: from the ESE (110 degrees) at 6 MPH (5 knots; 2.6 m/s)
Visibility: 6 or more miles 10+ km)
Ceiling: at least 12,000 feet AGL
Clouds: few clouds at 1400 feet AGL
Weather: no significant weather forecast for this period
Text: BECMG 1901/1903 32007KT
Forecast period: 0100 to 1800 UTC 19 April 2019
Forecast type: BECOMING: Conditions expected to become as follows by 0300 UTC 19 April 2019
Winds: from the NW (320 degrees) at 8 MPH (7 knots; 3.6 m/s)
Visibility: 6 or more miles 10+ km)
Ceiling: at least 12,000 feet AGL
Clouds: few clouds at 1400 feet AGL
Weather: no significant weather forecast for this period